sensor_id;sensor_type;location;lat;lon;timestamp;P1;durP1;ratioP1;P2;durP2;ratioP2
12314;SDS011;23886;46.614;14.276;2023-02-28T00:01:34;9.70;;;8.37;;
12314;SDS011;23886;46.614;14.276;2023-02-28T00:04:01;8.87;;;7.80;;
12314;SDS011;23886;46.614;14.276;2023-02-28T00:06:28;9.03;;;8.13;;
12314;SDS011;23886;46.614;14.276;2023-02-28T00:08:55;9.03;;;7.93;;
12314;SDS011;23886;46.614;14.276;2023-02-28T00:11:22;9.53;;;8.53;;
12314;SDS011;23886;46.614;14.276;2023-02-28T00:13:50;9.30;;;8.40;;
12314;SDS011;23886;46.614;14.276;2023-02-28T00:16:18;13.93;;;8.63;;
12314;SDS011;23886;46.614;14.276;2023-02-28T00:18:47;9.83;;;8.47;;
12314;SDS011;23886;46.614;14.276;2023-02-28T00:21:14;8.73;;;7.83;;
12314;SDS011;23886;46.614;14.276;2023-02-28T00:23:41;9.00;;;8.10;;
12314;SDS011;23886;46.614;14.276;2023-02-28T00:26:08;8.90;;;8.00;;
12314;SDS011;23886;46.614;14.276;2023-02-28T00:28:36;9.17;;;8.20;;
12314;SDS011;23886;46.614;14.276;2023-02-28T00:31:03;9.23;;;8.13;;
12314;SDS011;23886;46.614;14.276;2023-02-28T00:33:32;8.93;;;7.90;;
12314;SDS011;23886;46.614;14.276;2023-02-28T00:36:03;9.17;;;8.37;;
12314;SDS011;23886;46.614;14.276;2023-02-28T00:38:31;9.60;;;8.63;;
12314;SDS011;23886;46.614;14.276;2023-02-28T00:40:58;9.10;;;8.20;;
12314;SDS011;23886;46.614;14.276;2023-02-28T00:43:29;9.20;;;8.30;;
12314;SDS011;23886;46.614;14.276;2023-02-28T00:45:57;9.33;;;8.43;;
12314;SDS011;23886;46.614;14.276;2023-02-28T00:48:24;8.87;;;8.07;;
12314;SDS011;23886;46.614;14.276;2023-02-28T00:50:52;9.33;;;8.43;;
12314;SDS011;23886;46.614;14.276;2023-02-28T00:53:19;9.43;;;8.27;;
12314;SDS011;23886;46.614;14.276;2023-02-28T00:55:47;8.90;;;7.67;;
12314;SDS011;23886;46.614;14.276;2023-02-28T00:58:14;8.60;;;7.60;;
12314;SDS011;23886;46.614;14.276;2023-02-28T01:00:41;9.03;;;8.13;;
12314;SDS011;23886;46.614;14.276;2023-02-28T01:03:08;8.73;;;7.93;;
12314;SDS011;23886;46.614;14.276;2023-02-28T01:05:35;8.67;;;7.80;;
12314;SDS011;23886;46.614;14.276;2023-02-28T01:08:04;9.23;;;8.20;;
12314;SDS011;23886;46.614;14.276;2023-02-28T01:10:31;8.77;;;7.97;;
12314;SDS011;23886;46.614;14.276;2023-02-28T01:12:58;9.07;;;7.93;;
12314;SDS011;23886;46.614;14.276;2023-02-28T01:15:25;9.17;;;8.27;;
12314;SDS011;23886;46.614;14.276;2023-02-28T01:17:52;8.73;;;7.83;;
12314;SDS011;23886;46.614;14.276;2023-02-28T01:20:19;8.83;;;8.03;;
12314;SDS011;23886;46.614;14.276;2023-02-28T01:22:46;8.13;;;7.37;;
12314;SDS011;23886;46.614;14.276;2023-02-28T01:25:14;10.77;;;7.90;;
12314;SDS011;23886;46.614;14.276;2023-02-28T01:27:42;8.90;;;8.00;;
12314;SDS011;23886;46.614;14.276;2023-02-28T01:30:09;8.60;;;7.80;;
12314;SDS011;23886;46.614;14.276;2023-02-28T01:32:36;9.47;;;8.57;;
12314;SDS011;23886;46.614;14.276;2023-02-28T01:35:04;8.90;;;8.00;;
12314;SDS011;23886;46.614;14.276;2023-02-28T01:37:31;11.77;;;8.47;;
12314;SDS011;23886;46.614;14.276;2023-02-28T01:39:58;9.37;;;8.30;;
12314;SDS011;23886;46.614;14.276;2023-02-28T01:42:26;9.57;;;8.37;;
12314;SDS011;23886;46.614;14.276;2023-02-28T01:44:58;8.63;;;7.83;;
12314;SDS011;23886;46.614;14.276;2023-02-28T01:47:29;9.20;;;7.93;;
12314;SDS011;23886;46.614;14.276;2023-02-28T01:49:58;10.57;;;8.73;;
12314;SDS011;23886;46.614;14.276;2023-02-28T01:52:27;8.53;;;7.60;;
12314;SDS011;23886;46.614;14.276;2023-02-28T01:54:55;9.10;;;8.20;;
12314;SDS011;23886;46.614;14.276;2023-02-28T01:57:27;9.07;;;8.20;;
12314;SDS011;23886;46.614;14.276;2023-02-28T02:00:04;9.17;;;8.13;;
12314;SDS011;23886;46.614;14.276;2023-02-28T02:02:34;8.30;;;7.50;;
12314;SDS011;23886;46.614;14.276;2023-02-28T02:05:04;8.03;;;7.23;;
12314;SDS011;23886;46.614;14.276;2023-02-28T02:07:33;8.40;;;7.60;;
12314;SDS011;23886;46.614;14.276;2023-02-28T02:10:05;9.67;;;8.30;;
12314;SDS011;23886;46.614;14.276;2023-02-28T02:12:43;9.03;;;8.13;;
12314;SDS011;23886;46.614;14.276;2023-02-28T02:15:30;8.83;;;7.93;;
12314;SDS011;23886;46.614;14.276;2023-02-28T02:18:02;9.87;;;8.43;;
12314;SDS011;23886;46.614;14.276;2023-02-28T02:23:33;8.63;;;7.80;;
12314;SDS011;23886;46.614;14.276;2023-02-28T02:32:38;9.10;;;8.20;;
12314;SDS011;23886;46.614;14.276;2023-02-28T02:35:20;9.17;;;8.23;;
12314;SDS011;23886;46.614;14.276;2023-02-28T02:37:55;9.33;;;7.80;;
12314;SDS011;23886;46.614;14.276;2023-02-28T02:40:31;9.63;;;8.40;;
12314;SDS011;23886;46.614;14.276;2023-02-28T02:43:04;8.90;;;8.00;;
12314;SDS011;23886;46.614;14.276;2023-02-28T02:45:38;7.93;;;7.13;;
12314;SDS011;23886;46.614;14.276;2023-02-28T02:48:11;8.67;;;7.87;;
12314;SDS011;23886;46.614;14.276;2023-02-28T02:50:50;8.30;;;7.50;;
12314;SDS011;23886;46.614;14.276;2023-02-28T02:53:21;8.90;;;7.60;;
12314;SDS011;23886;46.614;14.276;2023-02-28T02:55:52;8.40;;;7.60;;
12314;SDS011;23886;46.614;14.276;2023-02-28T02:58:22;7.93;;;7.13;;
12314;SDS011;23886;46.614;14.276;2023-02-28T03:00:54;8.70;;;7.90;;
12314;SDS011;23886;46.614;14.276;2023-02-28T03:03:26;8.50;;;7.70;;
12314;SDS011;23886;46.614;14.276;2023-02-28T03:05:56;7.63;;;6.83;;
12314;SDS011;23886;46.614;14.276;2023-02-28T03:08:25;10.23;;;8.13;;
12314;SDS011;23886;46.614;14.276;2023-02-28T03:10:55;9.70;;;8.10;;
12314;SDS011;23886;46.614;14.276;2023-02-28T03:13:29;8.37;;;7.47;;
12314;SDS011;23886;46.614;14.276;2023-02-28T03:16:27;8.20;;;7.40;;
12314;SDS011;23886;46.614;14.276;2023-02-28T03:19:02;8.40;;;7.57;;
12314;SDS011;23886;46.614;14.276;2023-02-28T03:21:42;8.40;;;7.67;;
12314;SDS011;23886;46.614;14.276;2023-02-28T03:24:16;8.40;;;7.57;;
12314;SDS011;23886;46.614;14.276;2023-02-28T03:26:52;8.20;;;7.50;;
12314;SDS011;23886;46.614;14.276;2023-02-28T03:29:26;8.13;;;7.33;;
12314;SDS011;23886;46.614;14.276;2023-02-28T03:32:00;8.47;;;7.60;;
12314;SDS011;23886;46.614;14.276;2023-02-28T03:34:33;8.57;;;7.67;;
12314;SDS011;23886;46.614;14.276;2023-02-28T03:37:05;8.93;;;7.07;;
12314;SDS011;23886;46.614;14.276;2023-02-28T03:39:36;8.67;;;7.77;;
12314;SDS011;23886;46.614;14.276;2023-02-28T03:42:08;8.70;;;7.80;;
12314;SDS011;23886;46.614;14.276;2023-02-28T03:44:39;7.87;;;7.00;;
12314;SDS011;23886;46.614;14.276;2023-02-28T03:47:09;8.93;;;8.03;;
12314;SDS011;23886;46.614;14.276;2023-02-28T03:49:41;8.40;;;7.60;;
12314;SDS011;23886;46.614;14.276;2023-02-28T03:52:14;8.50;;;7.23;;
12314;SDS011;23886;46.614;14.276;2023-02-28T03:54:44;9.37;;;7.40;;
12314;SDS011;23886;46.614;14.276;2023-02-28T03:57:15;8.37;;;7.57;;
12314;SDS011;23886;46.614;14.276;2023-02-28T03:59:49;8.47;;;7.63;;
12314;SDS011;23886;46.614;14.276;2023-02-28T04:02:23;9.27;;;7.40;;
12314;SDS011;23886;46.614;14.276;2023-02-28T04:04:50;8.97;;;7.73;;
12314;SDS011;23886;46.614;14.276;2023-02-28T04:07:18;8.17;;;7.37;;
12314;SDS011;23886;46.614;14.276;2023-02-28T04:09:45;9.60;;;7.47;;
12314;SDS011;23886;46.614;14.276;2023-02-28T04:12:12;8.07;;;7.27;;
12314;SDS011;23886;46.614;14.276;2023-02-28T04:14:39;8.40;;;7.50;;
12314;SDS011;23886;46.614;14.276;2023-02-28T04:17:06;8.30;;;7.37;;
12314;SDS011;23886;46.614;14.276;2023-02-28T04:19:33;9.13;;;7.70;;
12314;SDS011;23886;46.614;14.276;2023-02-28T04:22:00;7.83;;;7.07;;
12314;SDS011;23886;46.614;14.276;2023-02-28T04:24:28;7.83;;;7.03;;
12314;SDS011;23886;46.614;14.276;2023-02-28T04:26:56;8.57;;;7.67;;
12314;SDS011;23886;46.614;14.276;2023-02-28T04:29:24;9.77;;;7.83;;
12314;SDS011;23886;46.614;14.276;2023-02-28T04:31:52;10.43;;;7.70;;
12314;SDS011;23886;46.614;14.276;2023-02-28T04:34:21;8.43;;;7.37;;
12314;SDS011;23886;46.614;14.276;2023-02-28T04:36:48;8.93;;;7.67;;
12314;SDS011;23886;46.614;14.276;2023-02-28T04:39:16;8.33;;;7.20;;
12314;SDS011;23886;46.614;14.276;2023-02-28T04:41:44;9.43;;;7.40;;
12314;SDS011;23886;46.614;14.276;2023-02-28T04:44:12;10.23;;;7.93;;
12314;SDS011;23886;46.614;14.276;2023-02-28T04:46:39;8.97;;;7.70;;
12314;SDS011;23886;46.614;14.276;2023-02-28T04:49:06;8.50;;;7.60;;
12314;SDS011;23886;46.614;14.276;2023-02-28T04:51:34;7.50;;;6.80;;
12314;SDS011;23886;46.614;14.276;2023-02-28T04:54:01;8.17;;;7.40;;
12314;SDS011;23886;46.614;14.276;2023-02-28T04:56:28;8.20;;;7.00;;
12314;SDS011;23886;46.614;14.276;2023-02-28T04:58:56;7.60;;;6.90;;
12314;SDS011;23886;46.614;14.276;2023-02-28T05:01:24;9.27;;;7.90;;
12314;SDS011;23886;46.614;14.276;2023-02-28T05:03:53;8.93;;;7.13;;
12314;SDS011;23886;46.614;14.276;2023-02-28T05:06:22;9.03;;;7.40;;
12314;SDS011;23886;46.614;14.276;2023-02-28T05:08:51;8.87;;;7.00;;
12314;SDS011;23886;46.614;14.276;2023-02-28T05:11:19;8.23;;;7.43;;
12314;SDS011;23886;46.614;14.276;2023-02-28T05:13:47;8.50;;;7.70;;
12314;SDS011;23886;46.614;14.276;2023-02-28T05:16:16;8.13;;;7.33;;
12314;SDS011;23886;46.614;14.276;2023-02-28T05:18:45;9.13;;;7.77;;
12314;SDS011;23886;46.614;14.276;2023-02-28T05:21:22;9.47;;;7.57;;
12314;SDS011;23886;46.614;14.276;2023-02-28T05:23:52;8.10;;;7.03;;
12314;SDS011;23886;46.614;14.276;2023-02-28T05:26:21;8.67;;;7.77;;
12314;SDS011;23886;46.614;14.276;2023-02-28T05:28:48;7.47;;;6.77;;
12314;SDS011;23886;46.614;14.276;2023-02-28T05:31:16;8.97;;;7.03;;
12314;SDS011;23886;46.614;14.276;2023-02-28T05:33:43;9.27;;;8.37;;
12314;SDS011;23886;46.614;14.276;2023-02-28T05:36:11;9.07;;;8.17;;
12314;SDS011;23886;46.614;14.276;2023-02-28T05:38:38;8.47;;;7.60;;
12314;SDS011;23886;46.614;14.276;2023-02-28T05:41:05;8.63;;;7.83;;
12314;SDS011;23886;46.614;14.276;2023-02-28T05:43:33;10.00;;;9.00;;
12314;SDS011;23886;46.614;14.276;2023-02-28T05:46:01;9.83;;;8.83;;
12314;SDS011;23886;46.614;14.276;2023-02-28T05:48:31;9.43;;;8.07;;
12314;SDS011;23886;46.614;14.276;2023-02-28T05:50:59;9.03;;;7.77;;
12314;SDS011;23886;46.614;14.276;2023-02-28T05:53:26;8.40;;;7.60;;
12314;SDS011;23886;46.614;14.276;2023-02-28T05:55:53;8.50;;;7.70;;
12314;SDS011;23886;46.614;14.276;2023-02-28T05:58:20;10.03;;;8.03;;
12314;SDS011;23886;46.614;14.276;2023-02-28T06:00:47;9.87;;;8.40;;
12314;SDS011;23886;46.614;14.276;2023-02-28T06:03:15;9.73;;;7.80;;
12314;SDS011;23886;46.614;14.276;2023-02-28T06:05:43;9.30;;;8.30;;
12314;SDS011;23886;46.614;14.276;2023-02-28T06:08:10;8.03;;;7.23;;
12314;SDS011;23886;46.614;14.276;2023-02-28T06:10:37;8.50;;;7.60;;
12314;SDS011;23886;46.614;14.276;2023-02-28T06:13:04;9.17;;;8.00;;
12314;SDS011;23886;46.614;14.276;2023-02-28T06:15:31;10.77;;;8.47;;
12314;SDS011;23886;46.614;14.276;2023-02-28T06:17:59;12.20;;;8.23;;
12314;SDS011;23886;46.614;14.276;2023-02-28T06:20:26;10.23;;;8.47;;
12314;SDS011;23886;46.614;14.276;2023-02-28T06:22:56;8.80;;;7.77;;
12314;SDS011;23886;46.614;14.276;2023-02-28T06:25:24;8.33;;;7.40;;
12314;SDS011;23886;46.614;14.276;2023-02-28T06:27:52;8.57;;;7.67;;
12314;SDS011;23886;46.614;14.276;2023-02-28T06:30:20;10.10;;;8.20;;
12314;SDS011;23886;46.614;14.276;2023-02-28T06:32:49;10.57;;;7.77;;
12314;SDS011;23886;46.614;14.276;2023-02-28T06:35:17;9.73;;;8.00;;
12314;SDS011;23886;46.614;14.276;2023-02-28T06:37:44;9.10;;;7.87;;
12314;SDS011;23886;46.614;14.276;2023-02-28T06:40:13;8.33;;;7.40;;
12314;SDS011;23886;46.614;14.276;2023-02-28T06:42:41;10.53;;;8.10;;
12314;SDS011;23886;46.614;14.276;2023-02-28T06:45:09;8.70;;;7.80;;
12314;SDS011;23886;46.614;14.276;2023-02-28T06:47:36;9.07;;;7.87;;
12314;SDS011;23886;46.614;14.276;2023-02-28T06:50:05;8.67;;;7.77;;
12314;SDS011;23886;46.614;14.276;2023-02-28T06:52:33;10.30;;;7.17;;
12314;SDS011;23886;46.614;14.276;2023-02-28T06:55:02;8.43;;;7.63;;
12314;SDS011;23886;46.614;14.276;2023-02-28T06:57:31;13.40;;;9.10;;
12314;SDS011;23886;46.614;14.276;2023-02-28T07:00:00;9.83;;;8.30;;
12314;SDS011;23886;46.614;14.276;2023-02-28T07:02:29;9.03;;;7.20;;
12314;SDS011;23886;46.614;14.276;2023-02-28T07:04:56;9.23;;;8.07;;
12314;SDS011;23886;46.614;14.276;2023-02-28T07:07:23;10.83;;;8.40;;
12314;SDS011;23886;46.614;14.276;2023-02-28T07:09:50;13.47;;;9.87;;
12314;SDS011;23886;46.614;14.276;2023-02-28T07:12:17;11.87;;;9.63;;
12314;SDS011;23886;46.614;14.276;2023-02-28T07:14:46;14.63;;;10.60;;
12314;SDS011;23886;46.614;14.276;2023-02-28T07:17:13;11.13;;;9.50;;
12314;SDS011;23886;46.614;14.276;2023-02-28T07:19:40;10.00;;;8.70;;
12314;SDS011;23886;46.614;14.276;2023-02-28T07:22:07;9.73;;;8.10;;
12314;SDS011;23886;46.614;14.276;2023-02-28T07:24:34;9.03;;;8.13;;
12314;SDS011;23886;46.614;14.276;2023-02-28T07:27:01;9.27;;;8.27;;
12314;SDS011;23886;46.614;14.276;2023-02-28T07:29:28;8.00;;;7.20;;
12314;SDS011;23886;46.614;14.276;2023-02-28T07:31:56;7.93;;;7.17;;
12314;SDS011;23886;46.614;14.276;2023-02-28T07:34:23;9.20;;;8.30;;
12314;SDS011;23886;46.614;14.276;2023-02-28T07:36:52;8.57;;;7.67;;
12314;SDS011;23886;46.614;14.276;2023-02-28T07:39:19;10.27;;;7.57;;
12314;SDS011;23886;46.614;14.276;2023-02-28T07:41:47;9.47;;;7.80;;
12314;SDS011;23886;46.614;14.276;2023-02-28T07:44:14;11.87;;;8.90;;
12314;SDS011;23886;46.614;14.276;2023-02-28T07:46:41;10.80;;;9.07;;
12314;SDS011;23886;46.614;14.276;2023-02-28T07:49:10;8.93;;;8.03;;
12314;SDS011;23886;46.614;14.276;2023-02-28T07:51:37;9.57;;;8.57;;
12314;SDS011;23886;46.614;14.276;2023-02-28T07:54:04;9.90;;;8.10;;
12314;SDS011;23886;46.614;14.276;2023-02-28T07:56:31;9.00;;;8.20;;
12314;SDS011;23886;46.614;14.276;2023-02-28T07:58:58;10.10;;;9.10;;
12314;SDS011;23886;46.614;14.276;2023-02-28T08:01:26;9.27;;;8.33;;
12314;SDS011;23886;46.614;14.276;2023-02-28T08:03:53;10.50;;;8.83;;
12314;SDS011;23886;46.614;14.276;2023-02-28T08:06:24;9.57;;;8.57;;
12314;SDS011;23886;46.614;14.276;2023-02-28T08:08:51;9.23;;;8.33;;
12314;SDS011;23886;46.614;14.276;2023-02-28T08:11:21;9.70;;;8.03;;
12314;SDS011;23886;46.614;14.276;2023-02-28T08:13:48;10.20;;;8.17;;
12314;SDS011;23886;46.614;14.276;2023-02-28T08:16:15;13.47;;;8.60;;
12314;SDS011;23886;46.614;14.276;2023-02-28T08:18:47;9.73;;;8.20;;
12314;SDS011;23886;46.614;14.276;2023-02-28T08:21:14;9.13;;;8.03;;
12314;SDS011;23886;46.614;14.276;2023-02-28T08:23:42;9.37;;;8.37;;
12314;SDS011;23886;46.614;14.276;2023-02-28T08:26:09;9.80;;;8.60;;
12314;SDS011;23886;46.614;14.276;2023-02-28T08:28:36;10.33;;;8.70;;
12314;SDS011;23886;46.614;14.276;2023-02-28T08:31:06;9.30;;;8.37;;
12314;SDS011;23886;46.614;14.276;2023-02-28T08:33:35;9.37;;;8.37;;
12314;SDS011;23886;46.614;14.276;2023-02-28T08:36:04;8.30;;;7.50;;
12314;SDS011;23886;46.614;14.276;2023-02-28T08:38:32;12.00;;;8.57;;
12314;SDS011;23886;46.614;14.276;2023-02-28T08:41:00;10.90;;;8.37;;
12314;SDS011;23886;46.614;14.276;2023-02-28T08:43:28;9.43;;;8.47;;
12314;SDS011;23886;46.614;14.276;2023-02-28T08:45:55;10.13;;;8.73;;
12314;SDS011;23886;46.614;14.276;2023-02-28T08:48:22;9.13;;;8.17;;
12314;SDS011;23886;46.614;14.276;2023-02-28T08:50:56;9.80;;;8.07;;
12314;SDS011;23886;46.614;14.276;2023-02-28T08:53:23;9.10;;;7.60;;
12314;SDS011;23886;46.614;14.276;2023-02-28T08:55:57;9.33;;;7.73;;
12314;SDS011;23886;46.614;14.276;2023-02-28T08:58:26;9.60;;;8.60;;
12314;SDS011;23886;46.614;14.276;2023-02-28T09:00:54;13.83;;;8.73;;
12314;SDS011;23886;46.614;14.276;2023-02-28T09:03:21;9.67;;;8.67;;
12314;SDS011;23886;46.614;14.276;2023-02-28T09:05:52;9.60;;;8.57;;
12314;SDS011;23886;46.614;14.276;2023-02-28T09:08:20;9.43;;;8.47;;
12314;SDS011;23886;46.614;14.276;2023-02-28T09:10:47;9.07;;;8.17;;
12314;SDS011;23886;46.614;14.276;2023-02-28T09:13:15;9.07;;;8.17;;
12314;SDS011;23886;46.614;14.276;2023-02-28T09:15:43;9.23;;;8.33;;
12314;SDS011;23886;46.614;14.276;2023-02-28T09:18:10;10.07;;;9.03;;
12314;SDS011;23886;46.614;14.276;2023-02-28T09:20:38;10.40;;;8.53;;
12314;SDS011;23886;46.614;14.276;2023-02-28T09:23:05;9.10;;;7.37;;
12314;SDS011;23886;46.614;14.276;2023-02-28T09:25:33;8.73;;;7.93;;
12314;SDS011;23886;46.614;14.276;2023-02-28T09:28:01;8.93;;;8.03;;
12314;SDS011;23886;46.614;14.276;2023-02-28T09:30:28;9.47;;;8.10;;
12314;SDS011;23886;46.614;14.276;2023-02-28T09:32:57;9.93;;;8.60;;
12314;SDS011;23886;46.614;14.276;2023-02-28T09:35:24;9.47;;;8.13;;
12314;SDS011;23886;46.614;14.276;2023-02-28T09:37:52;9.23;;;8.33;;
12314;SDS011;23886;46.614;14.276;2023-02-28T09:40:20;9.53;;;8.63;;
12314;SDS011;23886;46.614;14.276;2023-02-28T09:42:50;10.27;;;8.80;;
12314;SDS011;23886;46.614;14.276;2023-02-28T09:45:22;9.17;;;8.23;;
12314;SDS011;23886;46.614;14.276;2023-02-28T09:47:54;9.23;;;8.33;;
12314;SDS011;23886;46.614;14.276;2023-02-28T09:50:30;9.13;;;8.03;;
12314;SDS011;23886;46.614;14.276;2023-02-28T09:52:59;10.43;;;8.17;;
12314;SDS011;23886;46.614;14.276;2023-02-28T09:55:33;9.30;;;8.30;;
12314;SDS011;23886;46.614;14.276;2023-02-28T09:58:04;9.80;;;8.80;;
12314;SDS011;23886;46.614;14.276;2023-02-28T10:00:35;12.10;;;8.33;;
12314;SDS011;23886;46.614;14.276;2023-02-28T10:03:10;10.97;;;7.90;;
12314;SDS011;23886;46.614;14.276;2023-02-28T10:05:58;9.53;;;8.53;;
12314;SDS011;23886;46.614;14.276;2023-02-28T10:08:31;10.00;;;8.77;;
12314;SDS011;23886;46.614;14.276;2023-02-28T10:11:11;10.63;;;8.70;;
12314;SDS011;23886;46.614;14.276;2023-02-28T10:13:46;12.90;;;8.97;;
12314;SDS011;23886;46.614;14.276;2023-02-28T10:16:20;9.20;;;7.97;;
12314;SDS011;23886;46.614;14.276;2023-02-28T10:18:52;10.77;;;8.23;;
12314;SDS011;23886;46.614;14.276;2023-02-28T10:21:26;13.43;;;9.03;;
12314;SDS011;23886;46.614;14.276;2023-02-28T10:24:01;11.17;;;8.87;;
12314;SDS011;23886;46.614;14.276;2023-02-28T10:26:31;11.33;;;8.73;;
12314;SDS011;23886;46.614;14.276;2023-02-28T10:28:59;9.70;;;8.70;;
12314;SDS011;23886;46.614;14.276;2023-02-28T10:31:27;11.20;;;9.43;;
12314;SDS011;23886;46.614;14.276;2023-02-28T10:33:55;9.90;;;8.77;;
12314;SDS011;23886;46.614;14.276;2023-02-28T10:36:22;10.00;;;8.67;;
12314;SDS011;23886;46.614;14.276;2023-02-28T10:38:50;10.60;;;9.10;;
12314;SDS011;23886;46.614;14.276;2023-02-28T10:41:26;9.13;;;8.23;;
12314;SDS011;23886;46.614;14.276;2023-02-28T10:46:39;8.87;;;7.97;;
12314;SDS011;23886;46.614;14.276;2023-02-28T10:49:12;9.60;;;8.20;;
12314;SDS011;23886;46.614;14.276;2023-02-28T10:51:41;13.33;;;8.53;;
12314;SDS011;23886;46.614;14.276;2023-02-28T10:54:16;9.57;;;8.23;;
12314;SDS011;23886;46.614;14.276;2023-02-28T10:56:44;10.00;;;8.27;;
12314;SDS011;23886;46.614;14.276;2023-02-28T10:59:24;10.47;;;8.33;;
12314;SDS011;23886;46.614;14.276;2023-02-28T11:01:54;12.17;;;9.17;;
12314;SDS011;23886;46.614;14.276;2023-02-28T11:04:31;9.47;;;7.77;;
12314;SDS011;23886;46.614;14.276;2023-02-28T11:07:03;11.03;;;8.60;;
12314;SDS011;23886;46.614;14.276;2023-02-28T11:09:34;9.43;;;8.20;;
12314;SDS011;23886;46.614;14.276;2023-02-28T11:12:04;9.07;;;8.03;;
12314;SDS011;23886;46.614;14.276;2023-02-28T11:14:35;9.97;;;8.40;;
12314;SDS011;23886;46.614;14.276;2023-02-28T11:17:18;10.47;;;8.90;;
12314;SDS011;23886;46.614;14.276;2023-02-28T11:19:47;9.93;;;8.93;;
12314;SDS011;23886;46.614;14.276;2023-02-28T11:22:18;10.03;;;8.97;;
12314;SDS011;23886;46.614;14.276;2023-02-28T11:24:50;10.13;;;8.90;;
12314;SDS011;23886;46.614;14.276;2023-02-28T11:27:26;10.10;;;9.10;;
12314;SDS011;23886;46.614;14.276;2023-02-28T11:30:30;9.47;;;8.57;;
12314;SDS011;23886;46.614;14.276;2023-02-28T11:33:00;9.20;;;8.23;;
12314;SDS011;23886;46.614;14.276;2023-02-28T11:35:28;9.60;;;8.60;;
12314;SDS011;23886;46.614;14.276;2023-02-28T11:37:59;9.77;;;8.73;;
12314;SDS011;23886;46.614;14.276;2023-02-28T11:40:30;10.30;;;9.27;;
12314;SDS011;23886;46.614;14.276;2023-02-28T11:43:08;10.53;;;8.50;;
12314;SDS011;23886;46.614;14.276;2023-02-28T11:45:51;10.47;;;8.73;;
12314;SDS011;23886;46.614;14.276;2023-02-28T11:48:29;10.33;;;8.97;;
12314;SDS011;23886;46.614;14.276;2023-02-28T11:51:05;11.83;;;9.17;;
12314;SDS011;23886;46.614;14.276;2023-02-28T11:53:50;9.80;;;8.80;;
12314;SDS011;23886;46.614;14.276;2023-02-28T11:56:31;9.57;;;8.47;;
12314;SDS011;23886;46.614;14.276;2023-02-28T11:59:05;9.70;;;8.70;;
12314;SDS011;23886;46.614;14.276;2023-02-28T12:02:01;11.53;;;8.83;;
12314;SDS011;23886;46.614;14.276;2023-02-28T12:04:45;10.93;;;9.33;;
12314;SDS011;23886;46.614;14.276;2023-02-28T12:07:22;9.60;;;8.60;;
12314;SDS011;23886;46.614;14.276;2023-02-28T12:09:56;10.70;;;9.60;;
12314;SDS011;23886;46.614;14.276;2023-02-28T12:12:37;13.03;;;9.73;;
12314;SDS011;23886;46.614;14.276;2023-02-28T12:18:38;11.57;;;9.63;;
12314;SDS011;23886;46.614;14.276;2023-02-28T12:21:27;13.33;;;10.33;;
12314;SDS011;23886;46.614;14.276;2023-02-28T12:24:04;9.87;;;8.30;;
12314;SDS011;23886;46.614;14.276;2023-02-28T12:26:45;10.90;;;9.00;;
12314;SDS011;23886;46.614;14.276;2023-02-28T12:29:17;11.27;;;9.50;;
12314;SDS011;23886;46.614;14.276;2023-02-28T12:31:49;11.10;;;9.50;;
12314;SDS011;23886;46.614;14.276;2023-02-28T12:34:22;12.90;;;10.47;;
12314;SDS011;23886;46.614;14.276;2023-02-28T12:36:54;11.50;;;9.97;;
12314;SDS011;23886;46.614;14.276;2023-02-28T12:39:26;15.43;;;10.00;;
12314;SDS011;23886;46.614;14.276;2023-02-28T12:41:58;12.13;;;9.83;;
12314;SDS011;23886;46.614;14.276;2023-02-28T12:44:30;11.13;;;9.80;;
12314;SDS011;23886;46.614;14.276;2023-02-28T12:47:02;12.83;;;10.17;;
12314;SDS011;23886;46.614;14.276;2023-02-28T12:49:31;12.83;;;10.20;;
12314;SDS011;23886;46.614;14.276;2023-02-28T12:52:00;11.23;;;9.50;;
12314;SDS011;23886;46.614;14.276;2023-02-28T12:54:29;11.53;;;9.83;;
12314;SDS011;23886;46.614;14.276;2023-02-28T12:57:04;12.20;;;9.83;;
12314;SDS011;23886;46.614;14.276;2023-02-28T12:59:38;12.80;;;10.10;;
12314;SDS011;23886;46.614;14.276;2023-02-28T13:05:39;12.20;;;9.50;;
12314;SDS011;23886;46.614;14.276;2023-02-28T13:08:37;15.70;;;10.10;;
12314;SDS011;23886;46.614;14.276;2023-02-28T13:11:40;11.03;;;9.93;;
12314;SDS011;23886;46.614;14.276;2023-02-28T13:14:16;11.27;;;9.87;;
12314;SDS011;23886;46.614;14.276;2023-02-28T13:17:09;12.17;;;9.63;;
12314;SDS011;23886;46.614;14.276;2023-02-28T13:19:38;11.20;;;10.00;;
12314;SDS011;23886;46.614;14.276;2023-02-28T13:22:15;11.73;;;9.73;;
12314;SDS011;23886;46.614;14.276;2023-02-28T13:24:45;12.87;;;10.37;;
12314;SDS011;23886;46.614;14.276;2023-02-28T13:33:22;12.40;;;10.03;;
12314;SDS011;23886;46.614;14.276;2023-02-28T13:38:52;13.67;;;10.17;;
12314;SDS011;23886;46.614;14.276;2023-02-28T13:44:10;10.70;;;9.50;;
12314;SDS011;23886;46.614;14.276;2023-02-28T13:49:40;13.40;;;10.50;;
12314;SDS011;23886;46.614;14.276;2023-02-28T13:52:09;11.20;;;9.97;;
12314;SDS011;23886;46.614;14.276;2023-02-28T13:54:45;10.67;;;9.43;;
12314;SDS011;23886;46.614;14.276;2023-02-28T13:57:44;11.30;;;10.10;;
12314;SDS011;23886;46.614;14.276;2023-02-28T14:00:35;10.40;;;9.30;;
12314;SDS011;23886;46.614;14.276;2023-02-28T14:03:13;12.30;;;10.60;;
12314;SDS011;23886;46.614;14.276;2023-02-28T14:08:45;12.43;;;10.13;;
12314;SDS011;23886;46.614;14.276;2023-02-28T14:11:30;12.53;;;10.67;;
12314;SDS011;23886;46.614;14.276;2023-02-28T14:13:58;11.43;;;9.67;;
12314;SDS011;23886;46.614;14.276;2023-02-28T14:16:27;10.97;;;9.87;;
12314;SDS011;23886;46.614;14.276;2023-02-28T14:19:03;11.27;;;9.63;;
12314;SDS011;23886;46.614;14.276;2023-02-28T14:21:38;15.17;;;10.97;;
12314;SDS011;23886;46.614;14.276;2023-02-28T14:24:19;12.10;;;9.73;;
12314;SDS011;23886;46.614;14.276;2023-02-28T14:32:47;11.43;;;9.63;;
12314;SDS011;23886;46.614;14.276;2023-02-28T14:35:35;15.20;;;9.90;;
12314;SDS011;23886;46.614;14.276;2023-02-28T14:38:17;10.80;;;9.70;;
12314;SDS011;23886;46.614;14.276;2023-02-28T14:40:46;13.10;;;10.53;;
12314;SDS011;23886;46.614;14.276;2023-02-28T14:43:20;11.77;;;9.27;;
12314;SDS011;23886;46.614;14.276;2023-02-28T14:45:49;12.30;;;9.90;;
12314;SDS011;23886;46.614;14.276;2023-02-28T14:48:18;11.60;;;9.87;;
12314;SDS011;23886;46.614;14.276;2023-02-28T14:50:48;12.23;;;9.47;;
12314;SDS011;23886;46.614;14.276;2023-02-28T14:53:19;16.50;;;14.53;;
12314;SDS011;23886;46.614;14.276;2023-02-28T14:55:47;11.23;;;10.10;;
12314;SDS011;23886;46.614;14.276;2023-02-28T14:58:21;11.10;;;9.90;;
12314;SDS011;23886;46.614;14.276;2023-02-28T15:00:51;11.23;;;10.03;;
12314;SDS011;23886;46.614;14.276;2023-02-28T15:03:20;13.07;;;10.50;;
12314;SDS011;23886;46.614;14.276;2023-02-28T15:05:52;13.00;;;11.00;;
12314;SDS011;23886;46.614;14.276;2023-02-28T15:08:23;14.23;;;10.60;;
12314;SDS011;23886;46.614;14.276;2023-02-28T15:10:52;14.20;;;10.70;;
12314;SDS011;23886;46.614;14.276;2023-02-28T15:13:21;13.53;;;10.50;;
12314;SDS011;23886;46.614;14.276;2023-02-28T15:15:50;12.23;;;10.30;;
12314;SDS011;23886;46.614;14.276;2023-02-28T15:18:23;12.70;;;10.97;;
12314;SDS011;23886;46.614;14.276;2023-02-28T15:20:56;13.43;;;10.80;;
12314;SDS011;23886;46.614;14.276;2023-02-28T15:23:27;12.67;;;11.03;;
12314;SDS011;23886;46.614;14.276;2023-02-28T15:25:55;12.23;;;9.73;;
12314;SDS011;23886;46.614;14.276;2023-02-28T15:28:22;12.30;;;9.80;;
12314;SDS011;23886;46.614;14.276;2023-02-28T15:30:51;14.27;;;11.00;;
12314;SDS011;23886;46.614;14.276;2023-02-28T15:33:22;15.20;;;12.60;;